createdAt,value
2019-05-01T00:01:42.266Z,96916.89
2019-05-01T00:04:51.492Z,96920.64
2019-05-01T00:07:50.536Z,96917.17
2019-05-01T00:10:46.299Z,96918.73
2019-05-01T00:13:42.901Z,96913.55
2019-05-01T00:16:38.746Z,96910.02
2019-05-01T00:19:35.566Z,96905.73
2019-05-01T00:22:32.136Z,96907.33
2019-05-01T00:25:27.712Z,96896.67
2019-05-01T00:28:25.852Z,96899.53
2019-05-01T00:31:21.310Z,96890.16
2019-05-01T00:34:18.003Z,96889.73
2019-05-01T00:37:15.880Z,96888.83
2019-05-01T00:40:11.433Z,96884.16
2019-05-01T00:43:08.350Z,96891.59
2019-05-01T00:46:04.921Z,96883.48
2019-05-01T00:49:01.672Z,96880.40
2019-05-01T00:51:58.245Z,96881.61
2019-05-01T00:54:55.632Z,96879.44
2019-05-01T00:57:55.690Z,96868.70
2019-05-01T01:01:01.631Z,96868.70
2019-05-01T01:03:58.446Z,96874.55
2019-05-01T01:06:53.711Z,96868.52
2019-05-01T01:09:50.576Z,96884.81
2019-05-01T01:12:45.414Z,96878.77
2019-05-01T01:15:42.053Z,96882.12
2019-05-01T01:18:38.829Z,96869.83
2019-05-01T01:21:34.549Z,96871.84
2019-05-01T01:24:31.494Z,96875.48
2019-05-01T01:27:26.901Z,96869.06
2019-05-01T01:30:23.500Z,96873.59
2019-05-01T01:33:20.699Z,96871.88
2019-05-01T01:36:16.351Z,96874.80
2019-05-01T01:39:13.920Z,96866.32
2019-05-01T01:42:09.456Z,96864.57
2019-05-01T01:45:10.891Z,96862.84
2019-05-01T01:48:19.334Z,96865.37
2019-05-01T01:51:15.949Z,96852.64
2019-05-01T01:54:12.522Z,96854.25
2019-05-01T01:57:10.283Z,96855.02
2019-05-01T02:00:06.913Z,96849.09
2019-05-01T02:03:06.116Z,96854.91
2019-05-01T02:06:01.672Z,96844.73
2019-05-01T02:08:57.726Z,96846.30
2019-05-01T02:11:54.237Z,96855.97
2019-05-01T02:14:49.805Z,96851.34
2019-05-01T02:17:46.600Z,96856.39
2019-05-01T02:20:42.445Z,96857.22
2019-05-01T02:23:38.811Z,96851.72
2019-05-01T02:26:34.125Z,96846.99
2019-05-01T02:29:35.783Z,96841.80
2019-05-01T02:32:31.635Z,96840.05
2019-05-01T02:35:30.434Z,96840.84
2019-05-01T02:38:23.831Z,96837.01
2019-05-01T02:41:21.650Z,96836.55
2019-05-01T02:44:17.487Z,96841.16
2019-05-01T02:47:15.303Z,96833.17
2019-05-01T02:50:18.208Z,96839.00
2019-05-01T02:53:13.773Z,96836.42
2019-05-01T02:56:23.046Z,96834.64
2019-05-01T02:59:18.687Z,96852.28
2019-05-01T03:02:15.546Z,96845.45
2019-05-01T03:05:11.995Z,96841.19
2019-05-01T03:08:07.742Z,96848.62
2019-05-01T03:11:04.669Z,96842.72
2019-05-01T03:14:01.517Z,96833.84
2019-05-01T03:16:59.297Z,96835.47
2019-05-01T03:20:10.006Z,96834.91
2019-05-01T03:23:18.963Z,96834.88
2019-05-01T03:26:14.989Z,96836.50
2019-05-01T03:29:10.407Z,96835.14
2019-05-01T03:32:18.765Z,96839.66
2019-05-01T03:35:06.776Z,96837.90
2019-05-01T03:38:03.670Z,96842.08
2019-05-01T03:41:00.267Z,96833.99
2019-05-01T03:43:56.537Z,96836.81
2019-05-01T03:46:53.411Z,96833.30
2019-05-01T03:49:50.330Z,96832.44
2019-05-01T03:52:45.877Z,96837.37
2019-05-01T03:55:42.538Z,96822.13
2019-05-01T03:58:39.179Z,96826.99
2019-05-01T04:01:50.751Z,96837.75
2019-05-01T04:04:47.404Z,96837.37
2019-05-01T04:07:43.013Z,96838.16
2019-05-01T04:10:39.871Z,96832.48
2019-05-01T04:13:36.701Z,96837.30
2019-05-01T04:16:33.385Z,96832.63
2019-05-01T04:19:28.155Z,96832.63
2019-05-01T04:22:25.302Z,96843.59
2019-05-01T04:25:20.993Z,96840.17
2019-05-01T04:28:29.830Z,96830.94
2019-05-01T04:31:51.678Z,96835.97
2019-05-01T04:34:55.918Z,96841.90
2019-05-01T04:37:52.588Z,96841.08
2019-05-01T04:40:49.340Z,96843.59
2019-05-01T04:43:46.219Z,96855.34
2019-05-01T04:46:42.859Z,96854.48
2019-05-01T04:49:39.702Z,96863.02
2019-05-01T04:52:36.446Z,96860.51
2019-05-01T04:55:32.575Z,96867.52
2019-05-01T04:58:29.396Z,96871.28
2019-05-01T05:01:28.112Z,96871.75
2019-05-01T05:04:25.264Z,96873.63
2019-05-01T05:07:22.113Z,96877.48
2019-05-01T05:10:17.922Z,96877.20
2019-05-01T05:13:32.181Z,96875.30
2019-05-01T05:16:51.738Z,96883.06
2019-05-01T05:19:48.604Z,96876.13
2019-05-01T05:22:43.994Z,96883.99
2019-05-01T05:25:40.805Z,96884.17
2019-05-01T05:28:37.259Z,96886.83
2019-05-01T05:31:34.721Z,96882.86
2019-05-01T05:34:30.262Z,96887.24
2019-05-01T05:37:30.389Z,96888.73
2019-05-01T05:40:27.186Z,96880.12
2019-05-01T05:43:22.780Z,96878.00
2019-05-01T05:46:18.998Z,96881.84
2019-05-01T05:49:15.737Z,96883.27
2019-05-01T05:52:23.801Z,96879.52
2019-05-01T05:55:29.372Z,96880.78
2019-05-01T05:58:38.871Z,96880.95
2019-05-01T06:01:48.776Z,96880.28
2019-05-01T06:04:54.505Z,96875.13
2019-05-01T06:08:03.258Z,96872.88
2019-05-01T06:11:10.214Z,96873.09
2019-05-01T06:14:20.996Z,96878.34
2019-05-01T06:17:31.628Z,96875.17
2019-05-01T06:20:37.266Z,96876.98
2019-05-01T06:23:46.323Z,96878.07
2019-05-01T06:26:43.466Z,96882.42
2019-05-01T06:29:40.062Z,96872.91
2019-05-01T06:32:40.012Z,96869.36
2019-05-01T06:35:34.074Z,96869.58
2019-05-01T06:38:36.193Z,96874.84
2019-05-01T06:41:33.759Z,96871.18
2019-05-01T06:44:38.387Z,96866.89
2019-05-01T06:47:43.169Z,96866.89
2019-05-01T06:51:02.776Z,96878.98
2019-05-01T06:53:58.201Z,96881.77
2019-05-01T06:56:53.672Z,96870.49
2019-05-01T06:59:50.307Z,96870.49
2019-05-01T07:02:47.871Z,96877.42
2019-05-01T07:05:44.748Z,96875.86
2019-05-01T07:08:46.429Z,96879.45
2019-05-01T07:11:52.580Z,96877.09
2019-05-01T07:14:47.086Z,96876.42
2019-05-01T07:17:43.835Z,96877.46
2019-05-01T07:20:53.809Z,96871.75
2019-05-01T07:23:52.243Z,96876.95
2019-05-01T07:26:49.133Z,96866.92
2019-05-01T07:29:44.915Z,96866.23
2019-05-01T07:32:47.110Z,96866.73
2019-05-01T07:35:42.809Z,96874.50
2019-05-01T07:38:40.574Z,96872.49
2019-05-01T07:41:38.799Z,96868.42
2019-05-01T07:44:42.355Z,96868.63
2019-05-01T07:47:45.587Z,96869.15
2019-05-01T07:50:42.381Z,96868.84
2019-05-01T07:53:39.734Z,96858.78
2019-05-01T07:56:35.755Z,96865.66
2019-05-01T07:59:32.106Z,96853.12
2019-05-01T08:02:31.138Z,96859.14
2019-05-01T08:05:24.350Z,96860.89
2019-05-01T08:08:21.132Z,96859.28
2019-05-01T08:11:17.002Z,96853.44
2019-05-01T08:14:16.627Z,96850.53
2019-05-01T08:17:12.824Z,96849.27
2019-05-01T08:20:15.041Z,96850.20
2019-05-01T08:23:12.109Z,96845.19
2019-05-01T08:26:08.808Z,96841.00
2019-05-01T08:29:30.376Z,96847.82
2019-05-01T08:32:39.120Z,96845.71
2019-05-01T08:35:36.396Z,96840.23
2019-05-01T08:38:34.341Z,96836.42
2019-05-01T08:41:31.710Z,96844.47
2019-05-01T08:47:25.937Z,96836.83
2019-05-01T08:50:26.769Z,96834.27
2019-05-01T08:53:23.481Z,96832.92
2019-05-01T08:56:21.844Z,96831.11
2019-05-01T08:59:23.429Z,96833.11
2019-05-01T09:02:16.111Z,96834.36
2019-05-01T09:05:28.176Z,96832.23
2019-05-01T09:08:27.162Z,96824.59
2019-05-01T09:11:24.490Z,96821.59
2019-05-01T09:14:20.940Z,96825.36
2019-05-01T09:17:17.613Z,96824.50
2019-05-01T09:20:12.964Z,96824.50
2019-05-01T09:23:14.359Z,96819.39
2019-05-01T09:26:23.646Z,96815.13
2019-05-01T09:29:22.748Z,96810.30
2019-05-01T09:32:19.596Z,96807.61
2019-05-01T09:35:16.404Z,96806.71
2019-05-01T09:38:13.383Z,96801.98
2019-05-01T09:41:09.065Z,96804.46
2019-05-01T09:44:10.034Z,96800.19
2019-05-01T09:47:01.427Z,96806.01
2019-05-01T09:49:59.039Z,96810.54
2019-05-01T09:53:06.810Z,96809.27
2019-05-01T09:56:24.997Z,96809.18
2019-05-01T09:59:23.072Z,96804.59
2019-05-01T10:02:18.673Z,96803.75
2019-05-01T10:05:28.915Z,96794.55
2019-05-01T10:08:20.920Z,96787.52
2019-05-01T10:11:17.988Z,96786.92
2019-05-01T10:14:14.856Z,96779.56
2019-05-01T10:17:13.443Z,96791.45
2019-05-01T10:20:07.692Z,96787.97
2019-05-01T10:23:03.132Z,96782.75
2019-05-01T10:26:01.707Z,96780.59
2019-05-01T10:29:16.102Z,96782.78
2019-05-01T10:32:21.692Z,96788.16
2019-05-01T10:35:27.888Z,96786.53
2019-05-01T10:38:24.468Z,96781.05
2019-05-01T10:41:21.356Z,96778.48
2019-05-01T10:44:18.034Z,96775.47
2019-05-01T10:47:14.700Z,96769.59
2019-05-01T10:50:12.469Z,96763.39
2019-05-01T10:53:08.265Z,96769.86
2019-05-01T10:56:04.786Z,96766.50
2019-05-01T10:59:01.538Z,96769.06
2019-05-01T11:02:06.949Z,96758.36
2019-05-01T11:05:03.494Z,96749.22
2019-05-01T11:08:00.307Z,96750.54
2019-05-01T11:10:57.196Z,96747.33
2019-05-01T11:13:54.059Z,96745.44
2019-05-01T11:16:50.756Z,96742.84
2019-05-01T11:19:47.392Z,96745.44
2019-05-01T11:22:43.732Z,96748.27
2019-05-01T11:25:44.704Z,96742.85
2019-05-01T11:28:40.420Z,96751.36
2019-05-01T11:31:43.206Z,96743.91
2019-05-01T11:34:53.780Z,96740.52
2019-05-01T11:38:14.267Z,96737.84
2019-05-01T11:41:13.309Z,96737.84
2019-05-01T11:44:09.127Z,96734.88
2019-05-01T11:47:06.916Z,96730.96
2019-05-01T11:50:06.206Z,96728.88
2019-05-01T11:53:02.680Z,96724.11
2019-05-01T11:55:59.464Z,96726.39
2019-05-01T11:58:54.972Z,96730.59
2019-05-01T12:01:51.630Z,96727.50
2019-05-01T12:04:47.531Z,96731.09
2019-05-01T12:07:45.101Z,96725.34
2019-05-01T12:10:41.009Z,96724.79
2019-05-01T12:13:43.877Z,96722.33
2019-05-01T12:16:50.236Z,96719.80
2019-05-01T12:19:45.592Z,96722.30
2019-05-01T12:22:42.022Z,96717.91
2019-05-01T12:25:37.641Z,96714.91
2019-05-01T12:28:35.555Z,96721.14
2019-05-01T12:31:32.643Z,96710.95
2019-05-01T12:34:35.888Z,96711.81
2019-05-01T12:37:50.335Z,96706.68
2019-05-01T12:40:45.059Z,96711.62
2019-05-01T12:43:43.741Z,96710.14
2019-05-01T12:46:52.513Z,96707.77
2019-05-01T12:49:50.284Z,96704.14
2019-05-01T12:52:57.969Z,96702.02
2019-05-01T12:56:10.036Z,96701.97
2019-05-01T12:59:08.566Z,96692.34
2019-05-01T13:02:04.276Z,96690.59
2019-05-01T13:05:02.267Z,96705.19
2019-05-01T13:07:57.793Z,96694.40
2019-05-01T13:10:54.150Z,96694.44
2019-05-01T13:13:50.818Z,96690.00
2019-05-01T13:16:47.322Z,96683.61
2019-05-01T13:19:42.075Z,96679.94
2019-05-01T13:22:38.881Z,96684.34
2019-05-01T13:25:34.685Z,96681.78
2019-05-01T13:28:49.766Z,96676.70
2019-05-01T13:31:51.304Z,96676.22
2019-05-01T13:34:52.671Z,96675.36
2019-05-01T13:37:48.782Z,96675.36
2019-05-01T13:40:47.800Z,96668.28
2019-05-01T13:43:51.609Z,96662.89
2019-05-01T13:46:46.666Z,96661.89
2019-05-01T13:49:44.278Z,96658.27
2019-05-01T13:52:41.074Z,96655.45
2019-05-01T13:55:37.671Z,96660.59
2019-05-01T13:58:35.273Z,96652.47
2019-05-01T14:01:30.898Z,96651.94
2019-05-01T14:04:28.530Z,96648.72
2019-05-01T14:07:28.234Z,96643.23
2019-05-01T14:10:25.933Z,96636.48
2019-05-01T14:13:22.653Z,96632.20
2019-05-01T14:16:19.849Z,96634.05
2019-05-01T14:19:17.074Z,96633.17
2019-05-01T14:22:24.033Z,96628.73
2019-05-01T14:25:20.615Z,96619.64
2019-05-01T14:28:16.121Z,96614.77
2019-05-01T14:31:12.794Z,96623.77
2019-05-01T14:34:09.404Z,96614.72
2019-05-01T14:37:05.002Z,96615.05
2019-05-01T14:40:03.037Z,96615.59
2019-05-01T14:42:58.818Z,96619.20
2019-05-01T14:45:56.041Z,96613.62
2019-05-01T14:48:51.012Z,96622.61
2019-05-01T14:51:47.673Z,96620.98
2019-05-01T14:54:44.245Z,96612.05
2019-05-01T14:57:39.885Z,96606.84
2019-05-01T15:00:37.693Z,96597.27
2019-05-01T15:03:33.279Z,96594.36
2019-05-01T15:06:29.944Z,96592.83
2019-05-01T15:09:26.817Z,96590.41
2019-05-01T15:12:23.237Z,96590.38
2019-05-01T15:15:49.660Z,96583.34
2019-05-01T15:18:59.519Z,96582.05
2019-05-01T15:21:56.414Z,96581.90
2019-05-01T15:24:52.571Z,96577.94
2019-05-01T15:27:48.168Z,96578.20
2019-05-01T15:30:45.924Z,96576.45
2019-05-01T15:33:41.605Z,96575.97
2019-05-01T15:36:38.689Z,96579.67
2019-05-01T15:39:46.445Z,96575.39
2019-05-01T15:42:45.840Z,96574.10
2019-05-01T15:45:42.502Z,96570.63
2019-05-01T15:48:39.369Z,96572.35
2019-05-01T15:51:36.032Z,96566.80
2019-05-01T15:54:31.822Z,96564.95
2019-05-01T15:57:28.527Z,96564.00
2019-05-01T16:00:25.248Z,96564.59
2019-05-01T16:03:21.752Z,96562.41
2019-05-01T16:06:17.655Z,96555.52
2019-05-01T16:09:14.389Z,96560.56
2019-05-01T16:12:24.276Z,96557.82
2019-05-01T16:15:25.470Z,96564.70
2019-05-01T16:18:23.128Z,96552.66
2019-05-01T16:21:20.810Z,96556.00
2019-05-01T16:24:17.379Z,96554.81
2019-05-01T16:27:13.209Z,96549.75
2019-05-01T16:30:10.985Z,96553.52
2019-05-01T16:33:06.570Z,96548.31
2019-05-01T16:36:03.203Z,96549.62
2019-05-01T16:39:15.705Z,96545.34
2019-05-01T16:42:11.542Z,96538.64
2019-05-01T16:45:07.822Z,96543.09
2019-05-01T16:48:03.636Z,96537.16
2019-05-01T16:51:06.085Z,96539.11
2019-05-01T16:54:03.239Z,96541.13
2019-05-01T16:56:58.323Z,96537.55
2019-05-01T16:59:54.911Z,96537.33
2019-05-01T17:03:05.149Z,96535.98
2019-05-01T17:06:18.837Z,96533.27
2019-05-01T17:09:26.840Z,96533.55
2019-05-01T17:12:24.230Z,96533.92
2019-05-01T17:15:19.804Z,96537.69
2019-05-01T17:18:16.481Z,96535.48
2019-05-01T17:21:13.204Z,96532.53
2019-05-01T17:24:09.448Z,96535.00
2019-05-01T17:27:06.371Z,96538.19
2019-05-01T17:30:02.117Z,96538.41
2019-05-01T17:33:00.824Z,96535.30
2019-05-01T17:35:54.248Z,96538.84
2019-05-01T17:38:51.246Z,96541.59
2019-05-01T17:41:49.056Z,96536.59
2019-05-01T17:44:45.804Z,96538.05
2019-05-01T17:47:42.778Z,96530.18
2019-05-01T17:50:38.417Z,96538.50
2019-05-01T17:53:35.355Z,96545.97
2019-05-01T17:56:30.901Z,96546.31
2019-05-01T17:59:27.841Z,96543.17
2019-05-01T18:02:31.977Z,96543.44
2019-05-01T18:05:46.443Z,96548.28
2019-05-01T18:08:42.911Z,96548.45
2019-05-01T18:11:39.628Z,96548.28
2019-05-01T18:14:36.798Z,96545.86
2019-05-01T18:17:31.821Z,96546.06
2019-05-01T18:20:33.865Z,96540.28
2019-05-01T18:23:49.423Z,96543.83
2019-05-01T18:26:58.817Z,96545.73
2019-05-01T18:30:01.580Z,96536.17
2019-05-01T18:32:59.875Z,96543.66
2019-05-01T18:35:56.415Z,96543.84
2019-05-01T18:39:16.673Z,96548.20
2019-05-01T18:42:13.831Z,96547.09
2019-05-01T18:45:20.135Z,96546.48
2019-05-01T18:48:12.140Z,96546.64
2019-05-01T18:51:20.396Z,96547.27
2019-05-01T18:54:16.081Z,96552.51
2019-05-01T18:57:12.961Z,96552.30
2019-05-01T19:00:08.854Z,96549.89
2019-05-01T19:03:05.471Z,96553.42
2019-05-01T19:06:00.775Z,96556.13
2019-05-01T19:08:58.849Z,96552.80
2019-05-01T19:11:54.697Z,96558.40
2019-05-01T19:14:51.490Z,96548.73
2019-05-01T19:17:48.037Z,96550.96
2019-05-01T19:20:43.739Z,96553.55
2019-05-01T19:23:40.185Z,96557.89
2019-05-01T19:26:38.282Z,96553.75
2019-05-01T19:29:33.955Z,96555.46
2019-05-01T19:32:29.606Z,96550.40
2019-05-01T19:35:41.074Z,96562.72
2019-05-01T19:38:36.934Z,96552.18
2019-05-01T19:41:34.466Z,96559.89
2019-05-01T19:44:31.447Z,96561.65
2019-05-01T19:47:28.325Z,96560.85
2019-05-01T19:50:28.352Z,96559.23
2019-05-01T19:53:25.459Z,96558.02
2019-05-01T19:56:22.793Z,96557.63
2019-05-01T19:59:18.227Z,96566.16
2019-05-01T20:02:17.207Z,96561.92
2019-05-01T20:05:11.173Z,96566.22
2019-05-01T20:08:11.645Z,96567.12
2019-05-01T20:11:09.770Z,96564.61
2019-05-01T20:14:06.209Z,96565.05
2019-05-01T20:17:04.665Z,96561.27
2019-05-01T20:19:57.977Z,96563.84
2019-05-01T20:23:03.855Z,96557.92
2019-05-01T20:26:01.969Z,96559.66
2019-05-01T20:29:00.508Z,96559.66
2019-05-01T20:31:56.839Z,96560.95
2019-05-01T20:34:54.037Z,96557.16
2019-05-01T20:37:51.434Z,96554.63
2019-05-01T20:40:51.275Z,96553.79
2019-05-01T20:43:48.194Z,96558.83
2019-05-01T20:46:44.708Z,96552.05
2019-05-01T20:49:41.326Z,96550.38
2019-05-01T20:52:37.002Z,96551.22
2019-05-01T20:55:33.926Z,96552.06
2019-05-01T20:58:31.967Z,96552.04
2019-05-01T21:01:29.555Z,96554.16
2019-05-01T21:04:55.588Z,96554.59
2019-05-01T21:08:09.707Z,96548.23
2019-05-01T21:11:13.050Z,96549.47
2019-05-01T21:14:18.097Z,96549.45
2019-05-01T21:17:09.592Z,96549.46
2019-05-01T21:20:03.865Z,96550.70
2019-05-01T21:23:03.918Z,96554.52
2019-05-01T21:25:55.935Z,96554.05
2019-05-01T21:28:54.129Z,96551.51
2019-05-01T21:31:49.675Z,96551.92
2019-05-01T21:34:46.698Z,96549.34
2019-05-01T21:37:42.286Z,96552.70
2019-05-01T21:40:41.129Z,96548.48
2019-05-01T21:43:37.125Z,96543.38
2019-05-01T21:46:34.055Z,96539.98
2019-05-01T21:49:28.841Z,96542.48
2019-05-01T21:52:26.823Z,96535.73
2019-05-01T21:55:20.140Z,96539.09
2019-05-01T21:58:21.110Z,96538.22
2019-05-01T22:01:13.542Z,96536.91
2019-05-01T22:04:09.085Z,96538.95
2019-05-01T22:07:06.883Z,96525.42
2019-05-01T22:10:02.505Z,96531.30
2019-05-01T22:12:58.924Z,96527.05
2019-05-01T22:15:58.520Z,96524.91
2019-05-01T22:19:06.639Z,96530.38
2019-05-01T22:22:21.026Z,96524.03
2019-05-01T22:25:26.603Z,96523.14
2019-05-01T22:28:32.915Z,96519.33
2019-05-01T22:31:47.274Z,96523.52
2019-05-01T22:34:51.738Z,96522.66
2019-05-01T22:37:48.570Z,96519.27
2019-05-01T22:41:06.024Z,96510.79
2019-05-01T22:43:53.388Z,96515.81
2019-05-01T22:46:50.052Z,96517.47
2019-05-01T22:49:51.280Z,96514.06
2019-05-01T22:52:47.882Z,96508.13
2019-05-01T22:55:44.721Z,96505.14
2019-05-01T22:58:40.288Z,96511.45
2019-05-01T23:01:36.993Z,96512.24
2019-05-01T23:04:33.711Z,96515.98
2019-05-01T23:07:30.171Z,96514.69
2019-05-01T23:10:26.345Z,96510.42
2019-05-01T23:13:21.376Z,96507.83
2019-05-01T23:16:19.188Z,96507.80
2019-05-01T23:19:14.703Z,96508.59
2019-05-01T23:22:12.651Z,96500.13
2019-05-01T23:25:08.142Z,96503.85
2019-05-01T23:28:06.045Z,96501.30
2019-05-01T23:31:01.681Z,96501.69
2019-05-01T23:33:58.332Z,96491.52
2019-05-01T23:36:55.321Z,96488.98
2019-05-01T23:39:52.245Z,96489.81
2019-05-01T23:42:52.817Z,96486.42
2019-05-01T23:45:44.895Z,96484.70
2019-05-01T23:48:41.478Z,96485.53
2019-05-01T23:51:37.083Z,96475.36
2019-05-01T23:54:33.133Z,96477.03
2019-05-01T23:57:28.429Z,96471.14
